Aviation Digital Data Service (ADDS)

Output produced by METARs form (0316 UTC 27 January 2022)
found at http://aviationweather.gov/metar/data/
 
METAR text: K7BM 270255Z AUTO 26012G19KT 10SM CLR M05/M15 A3007 RMK AO2
Conditions at: K7BM (BALD MOUNTAIN , CO, US) observed 0255 UTC 27 January 2022
Temperature: -5.0°C (23°F)
Dewpoint: -15.0°C ( 5°F) [RH = 45%]
Pressure (altimeter): 30.07 inches Hg (1018.4 mb)
Winds: from the W (260 degrees) at 14 MPH (12 knots; 6.2 m/s)
gusting to 22 MPH (19 knots; 9.8 m/s)
Visibility: 10 or more miles (16+ km)
Ceiling: at least 12,000 feet AGL
Clouds: sky clear below 12,000 feet AGL
Weather: automated observation with no human augmentation;
there may or may not be significant weather present at this time

METAR text: K7BM 270235Z AUTO 26011G17KT 10SM CLR M05/M15 A3007 RMK AO2
Conditions at: K7BM (BALD MOUNTAIN , CO, US) observed 0235 UTC 27 January 2022
Temperature: -5.0°C (23°F)
Dewpoint: -15.0°C ( 5°F) [RH = 45%]
Pressure (altimeter): 30.07 inches Hg (1018.4 mb)
Winds: from the W (260 degrees) at 13 MPH (11 knots; 5.7 m/s)
gusting to 20 MPH (17 knots; 8.7 m/s)
Visibility: 10 or more miles (16+ km)
Ceiling: at least 12,000 feet AGL
Clouds: sky clear below 12,000 feet AGL
Weather: automated observation with no human augmentation;
there may or may not be significant weather present at this time